This is the latest recevied weather packets stored in our database for station/object IU1FIL-23. If no packets are shown the sender has not sent any weather packets the latest 10 day(s).
| Time | Temp. | Humidity | Pressure | Rain* | Wind** | Luminosity | Snow |
|---|---|---|---|---|---|---|---|
| 1777623431 | 19.44° C | 40% | 1026.3 hPa | - | - | - | - |
| 1777622827 | 19.44° C | 44% | 1026.5 hPa | - | - | - | - |
| 1777622258 | 18.89° C | 44% | 1026.6 hPa | - | - | - | - |
| 1777622223 | 18.89° C | 44% | 1026.6 hPa | - | - | - | - |
| 1777621605 | 18.33° C | 45% | 1026.5 hPa | - | - | - | - |
| 1777621001 | 17.78° C | 46% | 1026.5 hPa | - | - | - | - |
| 1777620397 | 17.22° C | 47% | 1026.4 hPa | - | - | - | - |
| 1777619793 | 16.67° C | 47% | 1026.3 hPa | - | - | - | - |
| 1777619189 | 16.67° C | 48% | 1026.3 hPa | - | - | - | - |
| 1777618584 | 15.56° C | 49% | 1026.2 hPa | - | - | - | - |
| 1777617980 | 15° C | 50% | 1026.3 hPa | - | - | - | - |
| 1777617376 | 14.44° C | 50% | 1026.2 hPa | - | - | - | - |
| 1777616772 | 14.44° C | 50% | 1026.2 hPa | - | - | - | - |
| 1777616168 | 13.89° C | 50% | 1026.1 hPa | - | - | - | - |
| 1777615564 | 14.44° C | 49% | 1026 hPa | - | - | - | - |
| 1777614960 | 13.89° C | 50% | 1025.9 hPa | - | - | - | - |
| 1777614356 | 13.89° C | 51% | 1025.9 hPa | - | - | - | - |
| 1777613752 | 13.33° C | 51% | 1025.7 hPa | - | - | - | - |
| 1777613137 | 12.78° C | 51% | 1025.6 hPa | - | - | - | - |
| 1777612533 | 12.78° C | 52% | 1025.5 hPa | - | - | - | - |
| 1777611929 | 11.67° C | 54% | 1025.5 hPa | - | - | - | - |
| 1777611325 | 10.56° C | 57% | 1025.3 hPa | - | - | - | - |
| 1777610721 | 8.33° C | 65% | 1025.3 hPa | - | - | - | - |
| 1777610117 | 7.78° C | 65% | 1025.2 hPa | - | - | - | - |
| 1777609513 | 7.78° C | 65% | 1025.1 hPa | - | - | - | - |
* Rain since midnight (hover to see other rain measurements)
** Current wind speed in m/s (hover to see current wind gust speed)